sensor_id;sensor_type;location;lat;lon;timestamp;noise_LAeq;noise_LA_min;noise_LA_max;noise_LA01;noise_LA95
46749;Laerm;33775;47.992;11.864;2023-11-21T00:00:14;36.35;29.92;39.46;;
46749;Laerm;33775;47.992;11.864;2023-11-21T00:02:40;36.41;31.33;39.08;;
46749;Laerm;33775;47.992;11.864;2023-11-21T00:05:09;36.39;29.92;39.34;;
46749;Laerm;33775;47.992;11.864;2023-11-21T00:07:35;36.40;30.89;39.46;;
46749;Laerm;33775;47.992;11.864;2023-11-21T00:10:00;36.40;29.92;39.21;;
46749;Laerm;33775;47.992;11.864;2023-11-21T00:12:25;36.40;29.92;39.46;;
46749;Laerm;33775;47.992;11.864;2023-11-21T00:14:50;36.39;30.89;39.21;;
46749;Laerm;33775;47.992;11.864;2023-11-21T00:17:15;36.38;29.92;39.58;;
46749;Laerm;33775;47.992;11.864;2023-11-21T00:19:42;36.48;30.89;39.46;;
46749;Laerm;33775;47.992;11.864;2023-11-21T00:22:08;36.55;30.89;39.58;;
46749;Laerm;33775;47.992;11.864;2023-11-21T00:24:34;36.61;30.89;39.58;;
46749;Laerm;33775;47.992;11.864;2023-11-21T00:26:59;36.57;30.89;39.81;;
46749;Laerm;33775;47.992;11.864;2023-11-21T00:29:24;36.55;30.89;39.46;;
46749;Laerm;33775;47.992;11.864;2023-11-21T00:31:49;36.51;30.89;39.58;;
46749;Laerm;33775;47.992;11.864;2023-11-21T00:34:14;36.52;31.68;39.70;;
46749;Laerm;33775;47.992;11.864;2023-11-21T00:36:40;36.54;26.56;39.21;;
46749;Laerm;33775;47.992;11.864;2023-11-21T00:39:05;36.54;31.68;39.46;;
46749;Laerm;33775;47.992;11.864;2023-11-21T00:41:31;36.59;32.35;39.58;;
46749;Laerm;33775;47.992;11.864;2023-11-21T00:43:56;36.55;28.67;39.58;;
46749;Laerm;33775;47.992;11.864;2023-11-21T00:46:21;36.52;30.89;39.70;;
46749;Laerm;33775;47.992;11.864;2023-11-21T00:48:47;36.66;29.92;39.46;;
46749;Laerm;33775;47.992;11.864;2023-11-21T00:51:12;36.66;29.92;39.92;;
46749;Laerm;33775;47.992;11.864;2023-11-21T00:53:37;36.64;30.89;39.34;;
46749;Laerm;33775;47.992;11.864;2023-11-21T00:56:02;36.56;31.68;39.81;;
46749;Laerm;33775;47.992;11.864;2023-11-21T00:58:27;36.50;30.89;39.21;;
46749;Laerm;33775;47.992;11.864;2023-11-21T01:00:53;36.48;30.89;39.46;;
46749;Laerm;33775;47.992;11.864;2023-11-21T01:03:18;36.46;31.68;40.03;;
46749;Laerm;33775;47.992;11.864;2023-11-21T01:05:43;36.44;29.92;39.08;;
46749;Laerm;33775;47.992;11.864;2023-11-21T01:08:09;36.38;29.92;40.13;;
46749;Laerm;33775;47.992;11.864;2023-11-21T01:10:34;36.35;28.67;39.34;;
46749;Laerm;33775;47.992;11.864;2023-11-21T01:13:00;36.35;28.67;39.34;;
46749;Laerm;33775;47.992;11.864;2023-11-21T01:15:25;36.36;29.92;39.81;;
46749;Laerm;33775;47.992;11.864;2023-11-21T01:17:51;36.33;29.92;39.11;;
46749;Laerm;33775;47.992;11.864;2023-11-21T01:20:16;36.28;26.91;39.46;;
46749;Laerm;33775;47.992;11.864;2023-11-21T01:22:42;36.25;29.92;39.46;;
46749;Laerm;33775;47.992;11.864;2023-11-21T01:25:08;36.24;26.91;39.46;;
46749;Laerm;33775;47.992;11.864;2023-11-21T01:27:33;36.24;28.67;39.46;;
46749;Laerm;33775;47.992;11.864;2023-11-21T01:29:59;36.21;26.91;39.81;;
46749;Laerm;33775;47.992;11.864;2023-11-21T01:32:24;36.26;29.92;39.08;;
46749;Laerm;33775;47.992;11.864;2023-11-21T01:34:50;36.27;26.91;39.34;;
46749;Laerm;33775;47.992;11.864;2023-11-21T01:37:15;36.25;29.92;39.46;;
46749;Laerm;33775;47.992;11.864;2023-11-21T01:39:42;36.23;28.67;39.08;;
46749;Laerm;33775;47.992;11.864;2023-11-21T01:42:07;36.22;28.67;39.35;;
46749;Laerm;33775;47.992;11.864;2023-11-21T01:44:32;36.24;28.32;39.34;;
46749;Laerm;33775;47.992;11.864;2023-11-21T01:46:58;36.27;29.92;39.21;;
46749;Laerm;33775;47.992;11.864;2023-11-21T01:49:23;36.27;26.91;39.92;;
46749;Laerm;33775;47.992;11.864;2023-11-21T01:51:49;36.26;28.67;39.58;;
46749;Laerm;33775;47.992;11.864;2023-11-21T01:54:15;36.26;26.91;39.34;;
46749;Laerm;33775;47.992;11.864;2023-11-21T01:56:42;36.23;30.89;39.34;;
46749;Laerm;33775;47.992;11.864;2023-11-21T01:59:07;36.24;29.92;39.21;;
46749;Laerm;33775;47.992;11.864;2023-11-21T02:01:33;36.27;29.92;39.34;;
46749;Laerm;33775;47.992;11.864;2023-11-21T02:03:58;36.26;29.92;39.08;;
46749;Laerm;33775;47.992;11.864;2023-11-21T02:06:24;36.29;29.92;39.08;;
46749;Laerm;33775;47.992;11.864;2023-11-21T02:08:49;36.25;28.67;39.46;;
46749;Laerm;33775;47.992;11.864;2023-11-21T02:11:15;36.25;29.92;39.92;;
46749;Laerm;33775;47.992;11.864;2023-11-21T02:13:41;36.26;28.67;39.21;;
46749;Laerm;33775;47.992;11.864;2023-11-21T02:16:08;36.26;28.67;39.08;;
46749;Laerm;33775;47.992;11.864;2023-11-21T02:18:33;36.21;28.67;39.08;;
46749;Laerm;33775;47.992;11.864;2023-11-21T02:20:59;36.25;29.92;39.21;;
46749;Laerm;33775;47.992;11.864;2023-11-21T02:23:27;36.19;26.91;39.34;;
46749;Laerm;33775;47.992;11.864;2023-11-21T02:25:53;36.19;29.92;39.81;;
46749;Laerm;33775;47.992;11.864;2023-11-21T02:28:19;36.19;28.67;39.34;;
46749;Laerm;33775;47.992;11.864;2023-11-21T02:30:50;36.20;28.67;39.34;;
46749;Laerm;33775;47.992;11.864;2023-11-21T02:33:20;36.20;29.92;39.81;;
46749;Laerm;33775;47.992;11.864;2023-11-21T02:35:45;36.21;28.67;39.70;;
46749;Laerm;33775;47.992;11.864;2023-11-21T02:38:11;36.27;26.91;39.21;;
46749;Laerm;33775;47.992;11.864;2023-11-21T02:40:36;36.24;29.92;39.21;;
46749;Laerm;33775;47.992;11.864;2023-11-21T02:43:02;36.26;29.92;39.34;;
46749;Laerm;33775;47.992;11.864;2023-11-21T02:45:27;36.24;23.90;39.81;;
46749;Laerm;33775;47.992;11.864;2023-11-21T02:47:52;36.28;28.67;39.81;;
46749;Laerm;33775;47.992;11.864;2023-11-21T02:50:22;36.29;29.57;39.58;;
46749;Laerm;33775;47.992;11.864;2023-11-21T02:52:47;36.29;29.92;39.34;;
46749;Laerm;33775;47.992;11.864;2023-11-21T02:55:12;36.30;29.92;39.34;;
46749;Laerm;33775;47.992;11.864;2023-11-21T02:57:38;36.27;28.67;39.34;;
46749;Laerm;33775;47.992;11.864;2023-11-21T03:00:03;36.28;29.92;39.46;;
46749;Laerm;33775;47.992;11.864;2023-11-21T03:02:32;36.28;29.92;39.58;;
46749;Laerm;33775;47.992;11.864;2023-11-21T03:04:57;36.28;29.92;39.70;;
46749;Laerm;33775;47.992;11.864;2023-11-21T03:07:22;36.30;28.67;39.35;;
46749;Laerm;33775;47.992;11.864;2023-11-21T03:09:48;36.31;30.89;39.58;;
46749;Laerm;33775;47.992;11.864;2023-11-21T03:12:13;36.26;26.91;39.34;;
46749;Laerm;33775;47.992;11.864;2023-11-21T03:14:39;36.25;29.92;39.08;;
46749;Laerm;33775;47.992;11.864;2023-11-21T03:17:04;36.19;26.91;39.08;;
46749;Laerm;33775;47.992;11.864;2023-11-21T03:19:30;36.23;26.91;39.21;;
46749;Laerm;33775;47.992;11.864;2023-11-21T03:21:55;36.25;29.57;39.46;;
46749;Laerm;33775;47.992;11.864;2023-11-21T03:24:20;36.22;26.91;40.03;;
46749;Laerm;33775;47.992;11.864;2023-11-21T03:26:47;36.22;28.67;39.46;;
46749;Laerm;33775;47.992;11.864;2023-11-21T03:29:12;36.20;5.00;39.81;;
46749;Laerm;33775;47.992;11.864;2023-11-21T03:31:38;36.24;23.90;40.03;;
46749;Laerm;33775;47.992;11.864;2023-11-21T03:34:03;36.19;29.92;39.21;;
46749;Laerm;33775;47.992;11.864;2023-11-21T03:36:28;36.21;26.56;39.58;;
46749;Laerm;33775;47.992;11.864;2023-11-21T03:38:53;36.27;30.89;39.34;;
46749;Laerm;33775;47.992;11.864;2023-11-21T03:41:19;36.21;28.67;39.58;;
46749;Laerm;33775;47.992;11.864;2023-11-21T03:43:45;36.27;29.92;39.58;;
46749;Laerm;33775;47.992;11.864;2023-11-21T03:46:10;36.23;29.92;39.81;;
46749;Laerm;33775;47.992;11.864;2023-11-21T03:48:35;36.22;29.92;39.34;;
46749;Laerm;33775;47.992;11.864;2023-11-21T03:51:00;36.17;23.90;39.34;;
46749;Laerm;33775;47.992;11.864;2023-11-21T03:53:26;36.21;29.92;39.46;;
46749;Laerm;33775;47.992;11.864;2023-11-21T03:55:51;36.28;29.57;39.58;;
46749;Laerm;33775;47.992;11.864;2023-11-21T03:58:16;36.45;31.33;39.46;;
46749;Laerm;33775;47.992;11.864;2023-11-21T04:00:41;36.64;30.89;39.70;;
46749;Laerm;33775;47.992;11.864;2023-11-21T04:03:06;36.84;32.35;40.53;;
46749;Laerm;33775;47.992;11.864;2023-11-21T04:05:32;36.99;32.35;39.92;;
46749;Laerm;33775;47.992;11.864;2023-11-21T04:07:57;37.02;32.35;39.81;;
46749;Laerm;33775;47.992;11.864;2023-11-21T04:10:23;36.98;31.68;40.23;;
46749;Laerm;33775;47.992;11.864;2023-11-21T04:12:48;37.02;32.93;39.81;;
46749;Laerm;33775;47.992;11.864;2023-11-21T04:15:13;37.05;30.89;39.58;;
46749;Laerm;33775;47.992;11.864;2023-11-21T04:17:39;37.06;32.35;40.23;;
46749;Laerm;33775;47.992;11.864;2023-11-21T04:20:05;37.00;32.93;39.70;;
46749;Laerm;33775;47.992;11.864;2023-11-21T04:22:41;37.03;32.35;40.03;;
46749;Laerm;33775;47.992;11.864;2023-11-21T04:25:15;37.00;31.68;39.58;;
46749;Laerm;33775;47.992;11.864;2023-11-21T04:27:41;37.00;32.35;39.92;;
46749;Laerm;33775;47.992;11.864;2023-11-21T04:30:08;37.00;32.93;40.43;;
46749;Laerm;33775;47.992;11.864;2023-11-21T04:32:34;37.01;32.93;39.81;;
46749;Laerm;33775;47.992;11.864;2023-11-21T04:35:00;37.08;32.35;40.13;;
46749;Laerm;33775;47.992;11.864;2023-11-21T04:37:25;37.04;32.93;40.03;;
46749;Laerm;33775;47.992;11.864;2023-11-21T04:39:50;37.01;32.93;39.46;;
46749;Laerm;33775;47.992;11.864;2023-11-21T04:42:15;37.02;32.35;39.81;;
46749;Laerm;33775;47.992;11.864;2023-11-21T04:44:41;36.99;32.35;39.81;;
46749;Laerm;33775;47.992;11.864;2023-11-21T04:47:06;37.03;32.35;39.58;;
46749;Laerm;33775;47.992;11.864;2023-11-21T04:49:31;37.00;31.68;40.03;;
46749;Laerm;33775;47.992;11.864;2023-11-21T04:51:57;36.98;32.93;40.23;;
46749;Laerm;33775;47.992;11.864;2023-11-21T04:54:22;37.03;33.44;39.70;;
46749;Laerm;33775;47.992;11.864;2023-11-21T04:56:47;36.97;31.68;39.70;;
46749;Laerm;33775;47.992;11.864;2023-11-21T04:59:13;36.86;32.35;39.58;;
46749;Laerm;33775;47.992;11.864;2023-11-21T05:01:38;36.80;30.89;39.58;;
46749;Laerm;33775;47.992;11.864;2023-11-21T05:04:04;36.72;30.89;39.92;;
46749;Laerm;33775;47.992;11.864;2023-11-21T05:06:31;36.75;30.89;39.58;;
46749;Laerm;33775;47.992;11.864;2023-11-21T05:08:56;36.73;30.89;39.58;;
46749;Laerm;33775;47.992;11.864;2023-11-21T05:11:25;36.69;32.35;39.70;;
46749;Laerm;33775;47.992;11.864;2023-11-21T05:13:50;36.76;30.89;39.21;;
46749;Laerm;33775;47.992;11.864;2023-11-21T05:16:15;36.83;32.35;39.46;;
46749;Laerm;33775;47.992;11.864;2023-11-21T05:18:40;36.82;32.35;39.81;;
46749;Laerm;33775;47.992;11.864;2023-11-21T05:21:05;36.79;31.68;40.33;;
46749;Laerm;33775;47.992;11.864;2023-11-21T05:23:31;36.79;31.68;39.81;;
46749;Laerm;33775;47.992;11.864;2023-11-21T05:25:56;36.83;30.89;39.46;;
46749;Laerm;33775;47.992;11.864;2023-11-21T05:28:22;36.78;31.68;40.03;;
46749;Laerm;33775;47.992;11.864;2023-11-21T05:30:47;36.75;30.89;39.58;;
46749;Laerm;33775;47.992;11.864;2023-11-21T05:33:12;36.83;31.68;39.46;;
46749;Laerm;33775;47.992;11.864;2023-11-21T05:35:37;36.85;32.35;39.58;;
46749;Laerm;33775;47.992;11.864;2023-11-21T05:38:02;36.85;32.35;39.46;;
46749;Laerm;33775;47.992;11.864;2023-11-21T05:40:28;37.01;32.93;39.81;;
46749;Laerm;33775;47.992;11.864;2023-11-21T05:42:54;37.16;32.93;39.81;;
46749;Laerm;33775;47.992;11.864;2023-11-21T05:45:20;37.10;32.93;39.92;;
46749;Laerm;33775;47.992;11.864;2023-11-21T05:47:46;37.15;32.35;40.03;;
46749;Laerm;33775;47.992;11.864;2023-11-21T05:50:12;37.16;32.35;39.70;;
46749;Laerm;33775;47.992;11.864;2023-11-21T05:52:42;37.20;32.93;40.03;;
46749;Laerm;33775;47.992;11.864;2023-11-21T05:55:08;37.18;32.35;39.81;;
46749;Laerm;33775;47.992;11.864;2023-11-21T05:57:37;37.18;33.44;40.23;;
46749;Laerm;33775;47.992;11.864;2023-11-21T06:00:03;37.18;32.35;39.81;;
46749;Laerm;33775;47.992;11.864;2023-11-21T06:02:35;37.20;32.93;39.81;;
46749;Laerm;33775;47.992;11.864;2023-11-21T06:05:01;37.19;33.44;39.70;;
46749;Laerm;33775;47.992;11.864;2023-11-21T06:07:26;37.15;32.35;40.03;;
46749;Laerm;33775;47.992;11.864;2023-11-21T06:09:51;37.15;32.93;39.92;;
46749;Laerm;33775;47.992;11.864;2023-11-21T06:12:16;37.11;32.93;39.92;;
46749;Laerm;33775;47.992;11.864;2023-11-21T06:14:41;37.03;32.35;39.81;;
46749;Laerm;33775;47.992;11.864;2023-11-21T06:17:06;37.09;31.68;39.70;;
46749;Laerm;33775;47.992;11.864;2023-11-21T06:19:32;37.10;32.93;39.81;;
46749;Laerm;33775;47.992;11.864;2023-11-21T06:21:57;37.02;31.68;40.33;;
46749;Laerm;33775;47.992;11.864;2023-11-21T06:24:22;37.02;32.93;39.68;;
46749;Laerm;33775;47.992;11.864;2023-11-21T06:26:47;36.97;31.68;39.70;;
46749;Laerm;33775;47.992;11.864;2023-11-21T06:29:13;36.86;32.58;39.92;;
46749;Laerm;33775;47.992;11.864;2023-11-21T06:31:38;36.89;32.35;39.92;;
46749;Laerm;33775;47.992;11.864;2023-11-21T06:34:05;36.91;31.68;39.58;;
46749;Laerm;33775;47.992;11.864;2023-11-21T06:36:31;36.90;31.68;39.70;;
46749;Laerm;33775;47.992;11.864;2023-11-21T06:38:56;36.96;32.93;39.70;;
46749;Laerm;33775;47.992;11.864;2023-11-21T06:41:21;36.93;29.92;39.70;;
46749;Laerm;33775;47.992;11.864;2023-11-21T06:43:46;36.89;31.68;39.70;;
46749;Laerm;33775;47.992;11.864;2023-11-21T06:46:13;36.88;30.89;39.70;;
46749;Laerm;33775;47.992;11.864;2023-11-21T06:48:44;36.85;31.68;39.70;;
46749;Laerm;33775;47.992;11.864;2023-11-21T06:51:09;36.81;28.67;39.81;;
46749;Laerm;33775;47.992;11.864;2023-11-21T06:53:35;36.82;32.35;39.92;;
46749;Laerm;33775;47.992;11.864;2023-11-21T06:56:00;36.84;32.35;39.58;;
46749;Laerm;33775;47.992;11.864;2023-11-21T06:58:26;36.87;29.92;40.03;;
46749;Laerm;33775;47.992;11.864;2023-11-21T07:00:51;36.78;29.92;39.81;;
46749;Laerm;33775;47.992;11.864;2023-11-21T07:03:17;36.73;30.89;39.58;;
46749;Laerm;33775;47.992;11.864;2023-11-21T07:05:44;36.70;31.68;39.81;;
46749;Laerm;33775;47.992;11.864;2023-11-21T07:08:09;36.63;29.92;39.58;;
46749;Laerm;33775;47.992;11.864;2023-11-21T07:10:34;36.56;28.67;39.46;;
46749;Laerm;33775;47.992;11.864;2023-11-21T07:13:01;36.57;30.89;39.21;;
46749;Laerm;33775;47.992;11.864;2023-11-21T07:15:26;36.54;29.92;39.21;;
46749;Laerm;33775;47.992;11.864;2023-11-21T07:17:51;36.52;31.68;39.70;;
46749;Laerm;33775;47.992;11.864;2023-11-21T07:20:19;36.52;30.89;39.70;;
46749;Laerm;33775;47.992;11.864;2023-11-21T07:22:44;36.53;30.89;39.70;;
46749;Laerm;33775;47.992;11.864;2023-11-21T07:25:09;36.56;29.92;39.58;;
46749;Laerm;33775;47.992;11.864;2023-11-21T07:27:35;36.59;31.68;39.46;;
46749;Laerm;33775;47.992;11.864;2023-11-21T07:30:02;36.64;30.89;39.81;;
46749;Laerm;33775;47.992;11.864;2023-11-21T07:32:30;36.72;32.35;39.34;;
46749;Laerm;33775;47.992;11.864;2023-11-21T07:34:55;36.75;31.68;39.70;;
46749;Laerm;33775;47.992;11.864;2023-11-21T07:37:22;36.78;29.92;39.34;;
46749;Laerm;33775;47.992;11.864;2023-11-21T07:39:47;36.78;32.35;39.70;;
46749;Laerm;33775;47.992;11.864;2023-11-21T07:42:12;36.79;31.68;39.70;;
46749;Laerm;33775;47.992;11.864;2023-11-21T07:44:37;36.82;31.68;40.13;;
46749;Laerm;33775;47.992;11.864;2023-11-21T07:47:03;36.81;32.35;39.46;;
46749;Laerm;33775;47.992;11.864;2023-11-21T07:49:29;36.87;32.93;39.46;;
46749;Laerm;33775;47.992;11.864;2023-11-21T07:51:54;36.84;32.93;39.34;;
46749;Laerm;33775;47.992;11.864;2023-11-21T07:54:20;36.80;32.35;39.70;;
46749;Laerm;33775;47.992;11.864;2023-11-21T07:56:46;36.88;32.35;39.92;;
46749;Laerm;33775;47.992;11.864;2023-11-21T07:59:11;36.92;31.68;39.70;;
46749;Laerm;33775;47.992;11.864;2023-11-21T08:01:37;36.93;32.35;39.58;;
46749;Laerm;33775;47.992;11.864;2023-11-21T08:04:02;36.90;32.35;39.81;;
46749;Laerm;33775;47.992;11.864;2023-11-21T08:06:29;36.93;32.00;39.70;;
46749;Laerm;33775;47.992;11.864;2023-11-21T08:08:54;36.95;33.44;39.81;;
46749;Laerm;33775;47.992;11.864;2023-11-21T08:11:19;36.96;31.68;39.58;;
46749;Laerm;33775;47.992;11.864;2023-11-21T08:13:46;36.95;31.68;39.81;;
46749;Laerm;33775;47.992;11.864;2023-11-21T08:16:11;37.07;32.58;39.92;;
46749;Laerm;33775;47.992;11.864;2023-11-21T08:18:37;37.14;32.93;40.03;;
46749;Laerm;33775;47.992;11.864;2023-11-21T08:21:02;37.17;31.68;40.23;;
46749;Laerm;33775;47.992;11.864;2023-11-21T08:23:28;37.25;32.93;39.92;;
46749;Laerm;33775;47.992;11.864;2023-11-21T08:25:54;37.27;31.68;40.03;;
46749;Laerm;33775;47.992;11.864;2023-11-21T08:28:20;37.28;32.93;40.03;;
46749;Laerm;33775;47.992;11.864;2023-11-21T08:30:51;37.32;33.44;40.03;;
46749;Laerm;33775;47.992;11.864;2023-11-21T08:33:16;37.38;32.93;40.33;;
46749;Laerm;33775;47.992;11.864;2023-11-21T08:35:41;37.36;32.93;39.92;;
46749;Laerm;33775;47.992;11.864;2023-11-21T08:38:06;37.35;32.35;40.23;;
46749;Laerm;33775;47.992;11.864;2023-11-21T08:40:32;37.38;33.44;40.13;;
46749;Laerm;33775;47.992;11.864;2023-11-21T08:42:57;37.42;32.93;40.13;;
46749;Laerm;33775;47.992;11.864;2023-11-21T08:45:24;37.40;33.44;39.92;;
46749;Laerm;33775;47.992;11.864;2023-11-21T08:47:50;37.42;32.35;40.36;;
46749;Laerm;33775;47.992;11.864;2023-11-21T08:50:15;37.39;32.93;40.43;;
46749;Laerm;33775;47.992;11.864;2023-11-21T08:52:40;37.41;32.93;40.53;;
46749;Laerm;33775;47.992;11.864;2023-11-21T08:55:07;37.38;32.93;40.03;;
46749;Laerm;33775;47.992;11.864;2023-11-21T08:57:36;37.40;32.93;40.13;;
46749;Laerm;33775;47.992;11.864;2023-11-21T09:00:04;37.36;32.93;40.33;;
46749;Laerm;33775;47.992;11.864;2023-11-21T09:02:36;37.35;32.93;40.33;;
46749;Laerm;33775;47.992;11.864;2023-11-21T09:05:02;37.38;32.93;40.33;;
46749;Laerm;33775;47.992;11.864;2023-11-21T09:07:28;37.37;32.58;40.23;;
46749;Laerm;33775;47.992;11.864;2023-11-21T09:09:53;37.37;33.44;40.03;;
46749;Laerm;33775;47.992;11.864;2023-11-21T09:12:20;37.41;32.93;40.23;;
46749;Laerm;33775;47.992;11.864;2023-11-21T09:14:45;37.40;32.93;40.43;;
46749;Laerm;33775;47.992;11.864;2023-11-21T09:17:10;37.35;32.35;40.71;;
46749;Laerm;33775;47.992;11.864;2023-11-21T09:19:39;37.32;30.89;40.62;;
46749;Laerm;33775;47.992;11.864;2023-11-21T09:22:05;37.32;31.68;40.62;;
46749;Laerm;33775;47.992;11.864;2023-11-21T09:24:33;37.29;32.35;39.81;;
46749;Laerm;33775;47.992;11.864;2023-11-21T09:26:59;37.31;32.93;40.03;;
46749;Laerm;33775;47.992;11.864;2023-11-21T09:29:25;37.35;32.93;40.23;;
46749;Laerm;33775;47.992;11.864;2023-11-21T09:31:50;37.31;32.35;40.13;;
46749;Laerm;33775;47.992;11.864;2023-11-21T09:34:16;37.37;32.93;40.08;;
46749;Laerm;33775;47.992;11.864;2023-11-21T09:36:41;37.40;31.33;40.23;;
46749;Laerm;33775;47.992;11.864;2023-11-21T09:39:09;37.36;33.09;40.13;;
46749;Laerm;33775;47.992;11.864;2023-11-21T09:41:37;37.41;32.35;39.89;;
46749;Laerm;33775;47.992;11.864;2023-11-21T09:44:05;37.37;32.93;40.13;;
46749;Laerm;33775;47.992;11.864;2023-11-21T09:46:36;37.35;32.93;39.92;;
46749;Laerm;33775;47.992;11.864;2023-11-21T09:49:04;37.36;32.58;40.43;;
46749;Laerm;33775;47.992;11.864;2023-11-21T09:51:33;37.35;32.93;40.53;;
46749;Laerm;33775;47.992;11.864;2023-11-21T09:54:03;37.30;31.68;40.53;;
46749;Laerm;33775;47.992;11.864;2023-11-21T09:56:32;37.29;32.93;40.33;;
46749;Laerm;33775;47.992;11.864;2023-11-21T09:58:57;37.32;32.93;40.43;;
46749;Laerm;33775;47.992;11.864;2023-11-21T10:01:23;37.27;32.35;40.33;;
46749;Laerm;33775;47.992;11.864;2023-11-21T10:03:50;37.24;32.35;39.92;;
46749;Laerm;33775;47.992;11.864;2023-11-21T10:06:15;37.16;32.35;39.92;;
46749;Laerm;33775;47.992;11.864;2023-11-21T10:08:42;37.15;32.93;39.81;;
46749;Laerm;33775;47.992;11.864;2023-11-21T10:11:08;37.13;31.68;40.13;;
46749;Laerm;33775;47.992;11.864;2023-11-21T10:13:36;37.13;31.68;40.03;;
46749;Laerm;33775;47.992;11.864;2023-11-21T10:16:02;37.10;31.68;40.03;;
46749;Laerm;33775;47.992;11.864;2023-11-21T10:18:30;37.06;32.35;40.53;;
46749;Laerm;33775;47.992;11.864;2023-11-21T10:20:59;37.11;32.35;40.03;;
46749;Laerm;33775;47.992;11.864;2023-11-21T10:23:24;37.13;29.92;40.03;;
46749;Laerm;33775;47.992;11.864;2023-11-21T10:25:53;37.06;30.89;40.03;;
46749;Laerm;33775;47.992;11.864;2023-11-21T10:28:19;37.10;31.68;39.92;;
46749;Laerm;33775;47.992;11.864;2023-11-21T10:30:45;37.09;32.35;40.13;;
46749;Laerm;33775;47.992;11.864;2023-11-21T10:33:11;37.10;32.93;40.03;;
46749;Laerm;33775;47.992;11.864;2023-11-21T10:35:43;37.12;31.68;39.81;;
46749;Laerm;33775;47.992;11.864;2023-11-21T10:38:11;37.07;32.35;39.70;;
46749;Laerm;33775;47.992;11.864;2023-11-21T10:40:38;37.09;32.35;39.78;;
46749;Laerm;33775;47.992;11.864;2023-11-21T10:43:07;37.07;29.92;40.23;;
46749;Laerm;33775;47.992;11.864;2023-11-21T10:45:34;37.11;31.68;39.92;;
46749;Laerm;33775;47.992;11.864;2023-11-21T10:47:59;37.09;31.68;40.13;;
46749;Laerm;33775;47.992;11.864;2023-11-21T10:50:25;37.07;32.93;40.03;;
46749;Laerm;33775;47.992;11.864;2023-11-21T10:52:50;37.07;31.68;39.70;;
46749;Laerm;33775;47.992;11.864;2023-11-21T10:55:16;37.08;32.35;39.81;;
46749;Laerm;33775;47.992;11.864;2023-11-21T10:57:42;37.07;32.35;40.13;;
46749;Laerm;33775;47.992;11.864;2023-11-21T11:00:08;37.04;31.68;40.13;;
46749;Laerm;33775;47.992;11.864;2023-11-21T11:02:38;37.06;32.35;40.23;;
46749;Laerm;33775;47.992;11.864;2023-11-21T11:05:03;37.05;32.93;39.81;;
46749;Laerm;33775;47.992;11.864;2023-11-21T11:07:31;37.04;30.89;39.81;;
46749;Laerm;33775;47.992;11.864;2023-11-21T11:09:59;37.08;31.68;40.03;;
46749;Laerm;33775;47.992;11.864;2023-11-21T11:12:25;37.05;32.35;40.43;;
46749;Laerm;33775;47.992;11.864;2023-11-21T11:14:50;37.05;32.35;39.81;;
46749;Laerm;33775;47.992;11.864;2023-11-21T11:17:16;37.06;32.35;40.23;;
46749;Laerm;33775;47.992;11.864;2023-11-21T11:19:41;37.03;32.93;39.92;;
46749;Laerm;33775;47.992;11.864;2023-11-21T11:22:24;37.04;32.35;39.81;;
46749;Laerm;33775;47.992;11.864;2023-11-21T11:24:57;37.06;32.35;40.03;;
46749;Laerm;33775;47.992;11.864;2023-11-21T11:33:11;37.05;31.68;39.89;;
46749;Laerm;33775;47.992;11.864;2023-11-21T11:35:18;37.05;32.35;40.13;;
46749;Laerm;33775;47.992;11.864;2023-11-21T11:37:47;37.05;32.35;39.58;;
46749;Laerm;33775;47.992;11.864;2023-11-21T11:40:13;37.05;32.93;39.81;;
46749;Laerm;33775;47.992;11.864;2023-11-21T11:42:38;37.05;31.68;39.92;;
46749;Laerm;33775;47.992;11.864;2023-11-21T11:45:25;37.08;32.35;39.70;;
46749;Laerm;33775;47.992;11.864;2023-11-21T11:47:49;37.06;32.35;39.70;;
46749;Laerm;33775;47.992;11.864;2023-11-21T11:50:21;37.09;32.35;39.70;;
46749;Laerm;33775;47.992;11.864;2023-11-21T11:52:50;37.11;30.89;40.03;;
46749;Laerm;33775;47.992;11.864;2023-11-21T11:55:17;37.13;32.35;39.81;;
46749;Laerm;33775;47.992;11.864;2023-11-21T11:57:43;37.15;32.35;39.81;;
46749;Laerm;33775;47.992;11.864;2023-11-21T12:02:40;37.10;31.68;40.18;;
46749;Laerm;33775;47.992;11.864;2023-11-21T12:05:09;37.07;30.89;39.92;;
46749;Laerm;33775;47.992;11.864;2023-11-21T12:07:44;37.07;32.35;39.81;;
46749;Laerm;33775;47.992;11.864;2023-11-21T12:10:11;37.04;31.68;40.23;;
46749;Laerm;33775;47.992;11.864;2023-11-21T12:12:37;37.07;31.68;39.58;;
46749;Laerm;33775;47.992;11.864;2023-11-21T12:15:03;37.02;32.93;40.03;;
46749;Laerm;33775;47.992;11.864;2023-11-21T12:17:30;37.06;31.68;39.92;;
46749;Laerm;33775;47.992;11.864;2023-11-21T12:20:01;37.06;32.35;40.03;;
46749;Laerm;33775;47.992;11.864;2023-11-21T12:22:27;37.04;30.89;39.92;;
46749;Laerm;33775;47.992;11.864;2023-11-21T12:24:52;37.05;30.89;39.81;;
46749;Laerm;33775;47.992;11.864;2023-11-21T12:27:17;37.05;32.35;39.58;;
46749;Laerm;33775;47.992;11.864;2023-11-21T12:29:43;37.04;31.68;40.03;;
46749;Laerm;33775;47.992;11.864;2023-11-21T12:32:08;37.06;32.35;39.92;;
46749;Laerm;33775;47.992;11.864;2023-11-21T12:34:35;37.06;30.89;39.81;;
46749;Laerm;33775;47.992;11.864;2023-11-21T12:37:00;37.02;31.68;39.58;;
46749;Laerm;33775;47.992;11.864;2023-11-21T12:39:26;37.08;32.93;40.33;;
46749;Laerm;33775;47.992;11.864;2023-11-21T12:41:51;37.04;31.68;39.70;;
46749;Laerm;33775;47.992;11.864;2023-11-21T12:44:16;37.07;32.93;39.70;;
46749;Laerm;33775;47.992;11.864;2023-11-21T12:46:43;37.05;32.93;39.70;;
46749;Laerm;33775;47.992;11.864;2023-11-21T12:49:10;37.06;30.89;39.70;;
46749;Laerm;33775;47.992;11.864;2023-11-21T12:51:42;37.06;30.89;39.70;;
46749;Laerm;33775;47.992;11.864;2023-11-21T12:54:07;37.05;32.93;39.92;;
46749;Laerm;33775;47.992;11.864;2023-11-21T12:56:38;37.03;31.68;39.81;;
46749;Laerm;33775;47.992;11.864;2023-11-21T12:59:03;37.07;31.68;39.81;;
46749;Laerm;33775;47.992;11.864;2023-11-21T13:01:29;37.07;31.68;39.81;;
46749;Laerm;33775;47.992;11.864;2023-11-21T13:03:56;37.07;30.89;40.13;;
46749;Laerm;33775;47.992;11.864;2023-11-21T13:06:22;37.09;31.68;40.03;;
46749;Laerm;33775;47.992;11.864;2023-11-21T13:08:50;37.09;32.93;40.03;;
46749;Laerm;33775;47.992;11.864;2023-11-21T13:11:15;37.11;32.35;40.13;;
46749;Laerm;33775;47.992;11.864;2023-11-21T13:13:43;37.10;32.35;40.03;;
46749;Laerm;33775;47.992;11.864;2023-11-21T13:16:08;37.09;31.68;40.89;;
46749;Laerm;33775;47.992;11.864;2023-11-21T13:18:34;37.05;31.68;39.92;;
46749;Laerm;33775;47.992;11.864;2023-11-21T13:21:03;37.06;31.68;39.92;;
46749;Laerm;33775;47.992;11.864;2023-11-21T13:23:34;37.09;31.68;39.81;;
46749;Laerm;33775;47.992;11.864;2023-11-21T13:26:01;37.10;32.00;40.03;;
46749;Laerm;33775;47.992;11.864;2023-11-21T13:28:29;37.26;32.93;40.13;;
46749;Laerm;33775;47.992;11.864;2023-11-21T13:30:57;37.38;32.93;40.13;;
46749;Laerm;33775;47.992;11.864;2023-11-21T13:33:27;37.43;32.93;40.23;;